Fremont, Iowa
Current Conditions -  °F | °C
As of 6:15 PM on Thursday 27 Nov 2014 (Local Time) from KOOA Reporting Station
Scattered Clouds Scattered Clouds  
Wind Chill: -7°   Ceiling: Unl
Heat Index:   Visibility: 10mi
Dew Point: -2°   Wind: 7mph
Humidity: 75%   Direction: 60°ENE
Pressure: 30.43"   Gusts: NA
Location:  41.21°N, 92.44°W
Report Text: KOOA 280015Z AUTO 06006KT 10SM SCT060 M15/M19 A3043 RMK AO2 T11521187
Loading
Personal Weather Stations






























Interactive Weather Map New forecast layout! Learn more

10-Day Weather Forecast

Advertisements
Track Severe Weather on mobile